Time;durP1;ratioP1;P1;durP2;ratioP2;P2;SDS_P1;SDS_P2;PMS_P1;PMS_P2;Temp;Humidity;BMP_temperature;BMP_pressure;BME280_temperature;BME280_humidity;BME280_pressure;Samples;Min_cycle;Max_cycle;Signal;HPM_P1;HPM_P2
2022/11/15 00:02:03;;;;;;;42.75;25.17;;;;;;;1.96;100.00;93653.69;5109378;28;20048;-76
2022/11/15 00:04:30;;;;;;;41.58;26.52;;;;;;;1.93;100.00;93651.44;5110339;28;20440;-77
2022/11/15 00:06:58;;;;;;;31.83;21.25;;;;;;;1.91;100.00;93638.13;5109468;28;20055;-76
2022/11/15 00:09:25;;;;;;;34.75;22.63;;;;;;;1.89;100.00;93645.06;5109478;28;20124;-76
2022/11/15 00:11:52;;;;;;;31.45;18.65;;;;;;;1.86;100.00;93632.69;5096396;28;20040;-76
2022/11/15 00:14:19;;;;;;;28.92;18.58;;;;;;;1.84;100.00;93648.03;5108600;28;20056;-76
2022/11/15 00:16:46;;;;;;;25.30;16.90;;;;;;;1.83;100.00;93643.91;5109142;28;20124;-76
2022/11/15 00:19:13;;;;;;;23.35;14.75;;;;;;;1.78;100.00;93642.75;5108923;28;20089;-76
2022/11/15 00:21:40;;;;;;;22.05;14.50;;;;;;;1.68;100.00;93643.63;5111001;28;20055;-76
2022/11/15 00:24:08;;;;;;;21.40;14.77;;;;;;;1.68;100.00;93647.88;5098921;28;20105;-76
2022/11/15 00:26:35;;;;;;;29.63;16.45;;;;;;;1.62;100.00;93628.97;5113050;28;20083;-76
2022/11/15 00:29:01;;;;;;;27.63;16.20;;;;;;;1.66;100.00;93637.88;5112940;28;20083;-76
2022/11/15 00:31:28;;;;;;;28.05;17.27;;;;;;;1.68;100.00;93641.09;5083878;28;20148;-76
2022/11/15 00:33:55;;;;;;;27.77;16.98;;;;;;;1.65;100.00;93638.84;5113137;28;20469;-76
2022/11/15 00:36:21;;;;;;;24.92;16.42;;;;;;;1.70;100.00;93639.19;5112940;28;20048;-76
2022/11/15 00:38:48;;;;;;;29.08;16.23;;;;;;;1.69;100.00;93634.28;5112675;28;20104;-76
2022/11/15 00:41:16;;;;;;;25.45;16.52;;;;;;;1.72;100.00;93634.78;5112632;28;20101;-76
2022/11/15 00:43:43;;;;;;;27.30;16.63;;;;;;;1.77;100.00;93636.91;5112881;28;20079;-76
2022/11/15 00:46:10;;;;;;;26.60;16.90;;;;;;;1.84;100.00;93627.75;5112952;28;20055;-76
2022/11/15 00:48:37;;;;;;;25.55;16.75;;;;;;;1.92;100.00;93632.09;5112531;28;20419;-76
2022/11/15 00:51:04;;;;;;;27.63;16.33;;;;;;;1.92;100.00;93632.09;5112192;28;20504;-76
2022/11/15 00:53:31;;;;;;;24.80;15.20;;;;;;;1.93;100.00;93637.97;5109068;28;20108;-76
2022/11/15 00:55:57;;;;;;;26.50;15.85;;;;;;;1.93;100.00;93633.69;5087910;28;20104;-76
2022/11/15 00:58:25;;;;;;;25.13;15.15;;;;;;;1.85;100.00;93624.28;5112292;28;20513;-76
2022/11/15 01:00:52;;;;;;;23.85;15.40;;;;;;;1.81;100.00;93624.72;5084988;28;20059;-76
2022/11/15 01:03:19;;;;;;;24.67;15.95;;;;;;;1.82;100.00;93623.78;5112042;28;20083;-76
2022/11/15 01:05:45;;;;;;;21.70;13.80;;;;;;;1.76;100.00;93622.63;5112474;28;20055;-76
2022/11/15 01:08:13;;;;;;;24.73;14.20;;;;;;;1.72;100.00;93623.88;5112411;28;20048;-76
2022/11/15 01:10:40;;;;;;;20.83;13.32;;;;;;;1.65;100.00;93636.31;5112245;28;20136;-76
2022/11/15 01:13:07;;;;;;;20.65;13.65;;;;;;;1.53;100.00;93612.13;5112480;27;20055;-76
2022/11/15 01:15:35;;;;;;;22.77;13.80;;;;;;;1.60;100.00;93625.81;5112062;28;20083;-76
2022/11/15 01:18:02;;;;;;;23.15;14.35;;;;;;;1.55;100.00;93630.50;5107807;28;20493;-76
2022/11/15 01:20:28;;;;;;;22.70;15.23;;;;;;;1.48;100.00;93627.75;5071320;28;20101;-76
2022/11/15 01:22:55;;;;;;;22.75;14.95;;;;;;;1.35;100.00;93622.25;5071364;28;20041;-76
2022/11/15 01:25:21;;;;;;;28.65;19.08;;;;;;;1.28;100.00;93620.28;5070834;28;20080;-76
2022/11/15 01:27:48;;;;;;;35.22;20.85;;;;;;;1.31;100.00;93630.09;5070971;28;20588;-76
2022/11/15 01:30:15;;;;;;;36.00;21.98;;;;;;;1.29;100.00;93629.47;5090203;28;20113;-76
2022/11/15 01:32:43;;;;;;;35.75;22.77;;;;;;;1.23;100.00;93624.16;5110744;28;20101;-76
2022/11/15 01:35:10;;;;;;;33.22;20.52;;;;;;;1.15;100.00;93614.78;5112082;28;20047;-76
2022/11/15 01:37:37;;;;;;;30.77;20.23;;;;;;;1.15;100.00;93628.22;5097943;28;20463;-76
2022/11/15 01:40:04;;;;;;;32.70;20.35;;;;;;;1.08;100.00;93623.84;5083320;28;20051;-76
2022/11/15 01:42:31;;;;;;;35.63;22.13;;;;;;;1.11;100.00;93610.94;5111641;28;20052;-76
2022/11/15 01:44:58;;;;;;;34.05;23.13;;;;;;;1.22;100.00;93625.91;5111549;28;20096;-76
2022/11/15 01:47:28;;;;;;;35.22;22.90;;;;;;;1.27;100.00;93621.22;5111289;28;20051;-76
2022/11/15 01:50:01;;;;;;;33.00;20.75;;;;;;;1.19;100.00;93603.41;5111331;28;20052;-76
2022/11/15 01:52:30;;;;;;;30.23;19.42;;;;;;;1.35;100.00;93628.13;5098505;28;20048;-77
2022/11/15 01:55:03;;;;;;;29.15;17.58;;;;;;;1.09;100.00;93592.53;5085843;28;20043;-78
2022/11/15 01:57:30;;;;;;;25.88;15.30;;;;;;;1.28;100.00;93624.53;5070312;28;20084;-77
2022/11/15 01:59:59;;;;;;;23.17;14.55;;;;;;;1.17;100.00;93615.41;5070350;28;20460;-78
2022/11/15 02:02:26;;;;;;;20.75;12.75;;;;;;;1.18;100.00;93625.41;5088093;28;20040;-77
2022/11/15 02:04:53;;;;;;;21.50;14.32;;;;;;;1.20;100.00;93627.78;5090354;28;20044;-77
2022/11/15 02:07:22;;;;;;;23.58;14.45;;;;;;;1.06;100.00;93613.88;5091061;28;20105;-78
2022/11/15 02:09:51;;;;;;;24.45;14.80;;;;;;;1.01;100.00;93619.34;5090655;28;20044;-78
2022/11/15 02:12:21;;;;;;;22.20;14.63;;;;;;;0.87;100.00;93599.56;5087928;28;20055;-77
2022/11/15 02:14:52;;;;;;;24.65;15.50;;;;;;;0.93;100.00;93615.00;5090639;28;20048;-78
2022/11/15 02:17:48;;;;;;;23.17;15.05;;;;;;;1.00;100.00;93615.25;5090484;28;20079;-78
2022/11/15 02:20:44;;;;;;;;;;;;;;;1.03;100.00;93616.69;5091152;28;20048;-78
2022/11/15 02:23:48;;;;;;;20.02;12.73;;;;;;;0.93;100.00;93616.75;5008169;28;19921;-76
2022/11/15 02:26:50;;;;;;;22.83;15.20;;;;;;;0.82;100.00;93611.88;5090373;28;20105;-77
2022/11/15 02:29:35;;;;;;;21.15;14.45;;;;;;;0.83;100.00;93605.88;5056142;28;20577;-77
2022/11/15 02:32:12;;;;;;;25.42;15.75;;;;;;;0.83;100.00;93590.69;5089770;28;20051;-77
2022/11/15 02:34:47;;;;;;;25.65;16.40;;;;;;;0.84;100.00;93587.22;5089945;28;20551;-77
2022/11/15 02:37:21;;;;;;;28.02;17.02;;;;;;;0.90;100.00;93594.25;5090264;28;20439;-77
2022/11/15 02:39:52;;;;;;;24.92;15.38;;;;;;;0.89;100.00;93592.66;5090182;28;20044;-78
2022/11/15 02:45:11;;;;;;;20.58;12.50;;;;;;;0.88;100.00;93599.44;5089782;28;20063;-77
2022/11/15 02:47:44;;;;;;;22.10;13.20;;;;;;;0.79;100.00;93590.97;5089391;28;20089;-76
2022/11/15 02:50:14;;;;;;;20.20;13.07;;;;;;;0.82;100.00;93600.00;5089844;28;20523;-76
2022/11/15 02:52:41;;;;;;;22.75;14.82;;;;;;;0.85;100.00;93601.47;5089307;28;20156;-77
2022/11/15 02:55:30;;;;;;;26.02;17.40;;;;;;;0.76;100.00;93598.84;5089739;28;20052;-77
2022/11/15 02:58:10;;;;;;;30.23;16.80;;;;;;;0.70;100.00;93596.06;5089436;28;20052;-77
2022/11/15 03:00:46;;;;;;;30.85;18.17;;;;;;;0.69;100.00;93591.94;5089410;28;20488;-77
2022/11/15 03:03:30;;;;;;;30.30;17.92;;;;;;;0.76;100.00;93593.78;5089670;28;20048;-76
2022/11/15 03:06:10;;;;;;;31.08;17.73;;;;;;;0.88;100.00;93599.44;5089597;28;20063;-77
2022/11/15 03:08:48;;;;;;;28.95;17.58;;;;;;;0.88;100.00;93591.06;5089298;28;20079;-76
2022/11/15 03:11:16;;;;;;;29.60;18.10;;;;;;;0.71;100.00;93568.13;5089610;28;20454;-76
2022/11/15 03:13:52;;;;;;;32.05;17.55;;;;;;;0.84;100.00;93567.00;5089377;28;20079;-76
2022/11/15 03:16:24;;;;;;;28.60;17.13;;;;;;;0.93;100.00;93587.16;5089716;28;20084;-77
2022/11/15 03:18:58;;;;;;;28.63;17.73;;;;;;;0.89;100.00;93587.59;5089483;28;20040;-76
2022/11/15 03:21:26;;;;;;;28.42;16.48;;;;;;;0.91;100.00;93598.38;5089313;28;20060;-76
2022/11/15 03:23:58;;;;;;;28.98;17.75;;;;;;;0.82;100.00;93577.25;5081813;28;20041;-75
2022/11/15 03:26:26;;;;;;;29.92;17.33;;;;;;;0.79;100.00;93577.53;5083515;28;20040;-75
2022/11/15 03:28:56;;;;;;;26.95;16.45;;;;;;;0.74;100.00;93574.63;5089399;28;20137;-76
2022/11/15 03:34:16;;;;;;;33.17;17.27;;;;;;;0.75;100.00;93571.94;5089087;28;20066;-76
2022/11/15 03:36:44;;;;;;;34.03;19.88;;;;;;;0.71;100.00;93568.13;5083296;28;20036;-76
2022/11/15 03:39:14;;;;;;;27.80;19.15;;;;;;;0.77;100.00;93569.28;5087488;28;20075;-76
2022/11/15 03:41:46;;;;;;;33.03;20.23;;;;;;;0.74;100.00;93559.47;5088999;28;20117;-78
2022/11/15 03:44:20;;;;;;;35.05;20.33;;;;;;;0.75;100.00;93561.81;5089335;28;20044;-77
2022/11/15 03:46:58;;;;;;;30.40;17.98;;;;;;;0.74;100.00;93556.94;5089408;28;20055;-78
2022/11/15 03:49:30;;;;;;;25.77;17.40;;;;;;;0.68;100.00;93549.91;5082639;28;20049;-78
2022/11/15 03:51:59;;;;;;;26.63;17.10;;;;;;;0.73;100.00;93550.25;5071503;28;20164;-78
2022/11/15 03:54:25;;;;;;;26.38;16.95;;;;;;;0.56;100.00;93537.47;5086567;28;20058;-78
2022/11/15 03:56:52;;;;;;;27.80;16.92;;;;;;;0.62;100.00;93544.47;5090734;28;20102;-78
2022/11/15 03:59:19;;;;;;;28.42;16.92;;;;;;;0.58;100.00;93539.81;5092692;28;20091;-78
2022/11/15 04:01:46;;;;;;;30.50;19.45;;;;;;;0.24;100.00;93505.78;5092966;28;20071;-78
2022/11/15 04:04:13;;;;;;;35.13;19.80;;;;;;;0.36;100.00;93519.84;5093066;28;20056;-77
2022/11/15 04:06:41;;;;;;;28.55;17.85;;;;;;;0.49;100.00;93533.88;5093180;28;20052;-77
2022/11/15 04:09:08;;;;;;;30.67;18.65;;;;;;;0.38;100.00;93514.66;5093140;28;20076;-79
2022/11/15 04:11:35;;;;;;;28.60;19.20;;;;;;;0.55;100.00;93538.38;5092946;28;20461;-76
2022/11/15 04:14:01;;;;;;;27.85;18.17;;;;;;;0.32;100.00;93500.03;5092577;28;20110;-75
2022/11/15 04:16:28;;;;;;;30.50;19.35;;;;;;;0.58;100.00;93539.81;5092898;28;20040;-76
2022/11/15 04:24:21;;;;;;;29.02;19.85;;;;;;;0.55;100.00;93537.59;5092462;28;20140;-76
2022/11/15 04:26:48;;;;;;;28.80;18.73;;;;;;;0.26;100.00;93529.97;5092725;28;20066;-76
2022/11/15 04:31:59;;;;;;;36.17;23.73;;;;;;;0.01;100.00;93538.16;5091691;28;20105;-76
2022/11/15 04:34:25;;;;;;;38.65;26.30;;;;;;;-0.08;100.00;93538.06;5092417;28;20097;-76
2022/11/15 04:39:40;;;;;;;37.72;23.83;;;;;;;-0.37;100.00;93506.06;5088623;28;20052;-76
2022/11/15 04:42:07;;;;;;;40.50;27.15;;;;;;;-0.17;100.00;93543.91;5110118;28;20096;-75
2022/11/15 04:44:34;;;;;;;42.13;24.38;;;;;;;-0.18;100.00;93539.81;5112781;28;20056;-76
2022/11/15 04:47:01;;;;;;;42.75;25.77;;;;;;;-0.18;100.00;93540.59;5112547;28;20652;-76
2022/11/15 04:49:28;;;;;;;38.17;23.75;;;;;;;-0.10;100.00;93547.47;5105116;28;20052;-76
2022/11/15 04:51:55;;;;;;;43.75;24.70;;;;;;;-0.10;100.00;93544.97;5106523;28;20108;-76
2022/11/15 04:54:21;;;;;;;38.28;23.42;;;;;;;-0.05;100.00;93547.09;5094845;28;20064;-76
2022/11/15 04:56:49;;;;;;;37.60;23.30;;;;;;;-0.03;100.00;93542.69;5101824;28;20047;-76
2022/11/15 04:59:16;;;;;;;40.33;23.38;;;;;;;0.03;100.00;93547.19;5112897;28;20470;-76
2022/11/15 05:01:43;;;;;;;38.45;24.55;;;;;;;0.11;100.00;93549.84;5112602;28;20152;-76
2022/11/15 05:04:20;;;;;;;40.75;25.17;;;;;;;0.15;100.00;93534.41;5112253;28;20132;-76
2022/11/15 05:06:48;;;;;;;39.15;22.35;;;;;;;0.28;100.00;93541.69;5112713;28;20053;-76
2022/11/15 05:09:15;;;;;;;36.92;23.50;;;;;;;0.35;100.00;93550.28;5112519;28;20071;-76
2022/11/15 05:11:42;;;;;;;35.38;22.00;;;;;;;0.38;100.00;93547.50;5111924;28;20047;-76
2022/11/15 05:14:10;;;;;;;31.52;19.27;;;;;;;0.35;100.00;93540.19;5111929;28;20097;-76
2022/11/15 05:16:37;;;;;;;28.42;17.65;;;;;;;0.32;100.00;93548.06;5112157;28;20055;-76
2022/11/15 05:19:04;;;;;;;28.58;18.15;;;;;;;0.17;100.00;93527.47;5112144;28;20051;-76
2022/11/15 05:21:31;;;;;;;29.63;20.10;;;;;;;0.24;100.00;93536.88;5112362;28;20078;-76
2022/11/15 05:23:58;;;;;;;38.58;22.85;;;;;;;0.32;100.00;93545.53;5111626;28;20411;-76
2022/11/15 05:26:24;;;;;;;37.28;22.48;;;;;;;0.24;100.00;93531.84;5112161;28;20048;-75
2022/11/15 05:28:53;;;;;;;40.70;25.08;;;;;;;0.30;100.00;93545.66;5112039;28;20052;-76
2022/11/15 05:31:22;;;;;;;43.55;27.38;;;;;;;0.32;100.00;93543.78;5112051;28;20054;-76
2022/11/15 05:33:51;;;;;;;46.28;27.98;;;;;;;0.31;100.00;93543.91;5111811;28;20082;-76
2022/11/15 05:36:22;;;;;;;44.22;27.08;;;;;;;0.30;100.00;93540.59;5112023;28;20051;-76
2022/11/15 05:38:50;;;;;;;44.05;26.67;;;;;;;0.32;100.00;93543.78;5112113;28;20793;-76
2022/11/15 05:41:19;;;;;;;46.20;26.67;;;;;;;0.32;100.00;93550.59;5111850;28;20150;-76
2022/11/15 05:43:49;;;;;;;47.88;28.60;;;;;;;0.32;100.00;93548.06;5111910;28;20047;-77
2022/11/15 05:46:17;;;;;;;50.00;30.45;;;;;;;0.37;100.00;93554.28;5111428;28;20048;-76
2022/11/15 05:48:50;;;;;;;48.35;30.85;;;;;;;0.33;100.00;93535.25;5111594;28;20048;-76
2022/11/15 05:51:20;;;;;;;46.10;28.52;;;;;;;0.43;100.00;93550.41;5111358;28;20566;-76
2022/11/15 05:53:47;;;;;;;50.83;29.02;;;;;;;0.47;100.00;93551.69;5103792;28;20471;-77
2022/11/15 05:56:14;;;;;;;45.10;27.80;;;;;;;0.52;100.00;93546.25;5091562;28;20051;-77
2022/11/15 05:58:42;;;;;;;50.15;26.80;;;;;;;0.57;100.00;93549.16;5111221;28;20884;-77
2022/11/15 06:01:09;;;;;;;42.78;25.73;;;;;;;0.64;100.00;93551.91;5111630;28;20051;-76
2022/11/15 06:03:36;;;;;;;44.58;26.25;;;;;;;0.65;100.00;93554.28;5111241;28;20097;-76
2022/11/15 06:06:04;;;;;;;52.63;30.13;;;;;;;0.70;100.00;93551.38;5111365;28;20040;-76
2022/11/15 06:08:31;;;;;;;47.08;26.67;;;;;;;0.74;100.00;93555.19;5111046;28;20043;-77
2022/11/15 06:10:57;;;;;;;39.58;23.75;;;;;;;0.75;100.00;93550.94;5110956;28;20092;-77
2022/11/15 06:13:24;;;;;;;42.53;24.63;;;;;;;0.74;100.00;93552.66;5111124;28;20515;-77
2022/11/15 06:16:09;;;;;;;38.17;23.00;;;;;;;0.81;100.00;93555.44;5111252;28;20043;-77
2022/11/15 06:18:37;;;;;;;41.60;22.80;;;;;;;0.76;100.00;93539.88;5110602;28;20096;-77
2022/11/15 06:21:06;;;;;;;43.40;23.08;;;;;;;0.93;100.00;93550.97;5106207;28;20097;-76
2022/11/15 06:23:34;;;;;;;43.63;24.10;;;;;;;0.97;100.00;93548.97;5101710;28;20043;-76
2022/11/15 06:26:02;;;;;;;43.58;23.42;;;;;;;0.86;100.00;93517.88;5110675;28;20055;-76
2022/11/15 06:28:30;;;;;;;45.33;24.42;;;;;;;1.01;100.00;93524.94;5111107;28;20056;-76
2022/11/15 06:30:57;;;;;;;42.42;23.95;;;;;;;1.22;100.00;93546.66;5110927;28;20054;-76
2022/11/15 06:33:23;;;;;;;54.42;26.70;;;;;;;1.32;100.00;93550.72;5110665;28;20047;-76
2022/11/15 06:35:50;;;;;;;64.15;34.22;;;;;;;1.40;100.00;93542.41;5110520;28;20048;-76
2022/11/15 06:38:18;;;;;;;57.97;36.50;;;;;;;1.47;100.00;93537.56;5110543;28;20087;-76
2022/11/15 06:40:45;;;;;;;66.35;37.28;;;;;;;1.51;100.00;93538.06;5097601;28;20063;-77
2022/11/15 06:43:11;;;;;;;61.75;36.80;;;;;;;1.64;100.00;93547.81;5109460;28;20497;-77
2022/11/15 06:45:38;;;;;;;56.72;34.75;;;;;;;1.73;100.00;93541.88;5110678;28;20055;-76
2022/11/15 06:48:06;;;;;;;63.85;35.58;;;;;;;1.81;100.00;93539.38;5110096;28;20047;-77
2022/11/15 06:50:32;;;;;;;59.22;35.55;;;;;;;2.00;100.00;93537.63;5110308;28;20052;-76
2022/11/15 06:53:02;;;;;;;54.75;33.55;;;;;;;2.04;100.00;93530.53;5110072;28;20079;-77
2022/11/15 06:55:31;;;;;;;50.97;29.20;;;;;;;2.10;100.00;93518.06;5081870;28;20039;-76
2022/11/15 06:57:57;;;;;;;51.00;28.58;;;;;;;2.34;100.00;93520.84;5110306;28;20570;-77
2022/11/15 07:00:24;;;;;;;47.85;27.88;;;;;;;2.48;100.00;93517.75;5110194;28;20043;-77
2022/11/15 07:02:51;;;;;;;46.10;28.75;;;;;;;2.66;100.00;93514.34;5110228;28;20076;-77
2022/11/15 07:05:18;;;;;;;41.80;26.42;;;;;;;2.78;100.00;93519.94;5110308;28;20051;-77
2022/11/15 07:07:51;;;;;;;45.50;27.40;;;;;;;2.91;100.00;93525.34;5110171;28;20040;-77
2022/11/15 07:10:18;;;;;;;43.88;27.70;;;;;;;3.06;100.00;93525.56;5110576;28;20059;-77
2022/11/15 07:12:49;;;;;;;51.13;30.13;;;;;;;3.16;100.00;93517.00;5110009;28;20048;-76
2022/11/15 07:15:16;;;;;;;63.95;35.28;;;;;;;3.20;100.00;93508.91;5096381;28;20051;-76
2022/11/15 07:17:43;;;;;;;61.75;36.72;;;;;;;3.18;100.00;93508.28;5102056;28;20459;-76
2022/11/15 07:20:11;;;;;;;56.15;32.05;;;;;;;3.30;100.00;93510.53;5108913;28;20567;-76
2022/11/15 07:22:37;;;;;;;62.22;35.50;;;;;;;3.37;100.00;93510.69;5110048;28;20051;-76
2022/11/15 07:25:05;;;;;;;94.93;51.45;;;;;;;3.44;100.00;93509.91;5109518;28;20493;-76
2022/11/15 07:27:31;;;;;;;110.65;59.67;;;;;;;3.41;100.00;93507.69;5109691;28;20060;-77
2022/11/15 07:29:59;;;;;;;103.28;54.15;;;;;;;3.45;100.00;93515.78;5109739;28;20083;-76
2022/11/15 07:32:26;;;;;;;96.55;51.20;;;;;;;3.50;100.00;93507.66;5109455;28;20096;-77
2022/11/15 07:34:53;;;;;;;94.80;47.65;;;;;;;3.37;100.00;93510.69;5109968;28;20097;-76
2022/11/15 07:37:20;;;;;;;86.32;47.03;;;;;;;3.48;100.00;93526.41;5109567;28;20052;-76
2022/11/15 07:39:46;;;;;;;95.20;47.08;;;;;;;3.60;100.00;93519.28;5109857;28;20055;-76
2022/11/15 07:44:57;;;;;;;81.93;42.17;;;;;;;3.78;100.00;93504.78;5109549;28;20109;-76
2022/11/15 07:47:25;;;;;;;73.10;39.80;;;;;;;4.03;100.00;93518.28;5109365;28;20113;-76
2022/11/15 07:49:52;;;;;;;70.00;38.97;;;;;;;4.18;100.00;93510.78;5109739;28;20077;-76
2022/11/15 07:52:18;;;;;;;75.60;39.55;;;;;;;4.31;100.00;93512.84;5109285;28;20488;-76
2022/11/15 07:54:45;;;;;;;74.70;39.60;;;;;;;4.37;100.00;93512.19;5085326;28;20052;-76
2022/11/15 07:57:12;;;;;;;67.00;37.13;;;;;;;4.55;100.00;93513.69;5091155;28;20112;-76
2022/11/15 07:59:38;;;;;;;65.80;36.70;;;;;;;4.82;100.00;93520.09;5109747;28;20417;-76
2022/11/15 08:02:05;;;;;;;63.88;34.00;;;;;;;5.14;100.00;93522.63;5109382;28;20052;-76
2022/11/15 08:04:33;;;;;;;60.20;33.00;;;;;;;5.39;100.00;93521.69;5109627;28;20047;-76
2022/11/15 08:07:00;;;;;;;69.00;34.85;;;;;;;5.53;100.00;93507.44;5109487;28;20048;-77
2022/11/15 08:09:26;;;;;;;81.53;35.40;;;;;;;5.59;100.00;93519.50;5109321;28;20108;-77
2022/11/15 08:11:53;;;;;;;68.30;35.55;;;;;;;5.77;100.00;93500.53;5109636;28;20052;-77
2022/11/15 08:14:21;;;;;;;79.57;37.70;;;;;;;5.96;100.00;93496.72;5109076;28;20680;-76
2022/11/15 08:16:48;;;;;;;65.88;34.75;;;;;;;6.17;100.00;93498.63;5109289;28;20050;-77
2022/11/15 08:19:15;;;;;;;71.65;35.53;;;;;;;6.23;100.00;93503.03;5109480;28;20101;-77
2022/11/15 08:21:43;;;;;;;78.35;37.28;;;;;;;6.39;100.00;93506.38;5109424;28;20059;-77
2022/11/15 08:24:11;;;;;;;60.95;32.20;;;;;;;6.62;100.00;93500.38;5109320;28;20101;-77
2022/11/15 08:26:38;;;;;;;61.42;29.45;;;;;;;6.65;100.00;93484.69;5109511;28;20097;-77
2022/11/15 08:29:05;;;;;;;50.55;27.33;;;;;;;6.77;100.00;93508.03;5108852;28;20497;-77
2022/11/15 08:31:31;;;;;;;54.63;26.45;;;;;;;6.95;100.00;93505.88;5109511;28;20144;-78
2022/11/15 08:33:58;;;;;;;62.15;29.58;;;;;;;7.17;100.00;93497.47;5109460;28;20118;-77
2022/11/15 08:36:25;;;;;;;42.45;24.02;;;;;;;7.38;100.00;93490.75;5100929;28;20519;-78
2022/11/15 08:38:53;;;;;;;49.63;26.10;;;;;;;7.33;100.00;93461.44;5083091;28;20117;-77
2022/11/15 08:41:27;;;;;;;52.10;26.45;;;;;;;7.79;100.00;93479.91;5098497;28;20133;-76
2022/11/15 08:43:54;;;;;;;47.60;26.83;;;;;;;7.89;100.00;93459.13;5073803;28;20076;-76
2022/11/15 08:46:20;;;;;;;56.17;30.52;;;;;;;8.22;100.00;93485.88;5071690;28;20078;-76
2022/11/15 08:48:47;;;;;;;54.47;29.02;;;;;;;8.41;100.00;93486.97;5071750;28;20045;-76
2022/11/15 08:51:16;;;;;;;62.05;30.38;;;;;;;8.55;100.00;93468.19;5071555;28;20578;-76
2022/11/15 08:53:43;;;;;;;49.50;26.33;;;;;;;8.77;100.00;93480.06;5073841;28;20051;-77
2022/11/15 08:56:13;;;;;;;52.45;25.25;;;;;;;8.50;100.00;93470.50;5071586;28;20089;-76
2022/11/15 08:58:40;;;;;;;48.15;24.40;;;;;;;8.80;100.00;93469.47;5071609;28;20114;-76
2022/11/15 09:01:15;;;;;;;49.08;23.27;;;;;;;8.99;100.00;93474.84;5073126;28;20102;-76
2022/11/15 09:03:42;;;;;;;49.60;24.15;;;;;;;9.08;100.00;93476.25;5071104;28;20052;-77
2022/11/15 09:06:08;;;;;;;50.67;24.75;;;;;;;9.21;100.00;93473.69;5071292;28;20045;-77
2022/11/15 09:08:35;;;;;;;49.15;24.23;;;;;;;9.37;100.00;93466.63;5071325;28;20123;-75
2022/11/15 09:11:04;;;;;;;52.20;24.35;;;;;;;9.50;100.00;93455.59;5071652;28;20052;-76
2022/11/15 09:13:32;;;;;;;52.22;24.98;;;;;;;9.35;100.00;93463.47;5071054;28;20558;-75
2022/11/15 09:16:02;;;;;;;41.20;22.70;;;;;;;9.34;100.00;93442.19;5073812;28;20072;-75
2022/11/15 09:18:29;;;;;;;56.85;23.75;;;;;;;9.41;100.00;93439.63;5071188;28;20052;-75
2022/11/15 09:20:57;;;;;;;48.42;23.15;;;;;;;9.42;100.00;93438.63;5072184;28;20766;-76
2022/11/15 09:23:24;;;;;;;39.67;21.02;;;;;;;9.45;100.00;93433.09;5070852;28;20055;-76
2022/11/15 09:25:51;;;;;;;44.83;19.80;;;;;;;9.47;100.00;93415.75;5070870;28;20105;-76
2022/11/15 09:28:18;;;;;;;41.10;20.55;;;;;;;9.76;100.00;93418.09;5070680;28;20682;-76
2022/11/15 09:31:00;;;;;;;43.58;21.95;;;;;;;9.72;100.00;93406.69;5070914;28;20044;-76
2022/11/15 09:33:27;;;;;;;41.05;20.50;;;;;;;10.13;100.00;93412.50;5070574;28;20494;-76
2022/11/15 09:35:54;;;;;;;46.30;21.20;;;;;;;10.37;100.00;93411.06;5073434;28;20040;-76
2022/11/15 09:38:21;;;;;;;40.75;20.38;;;;;;;10.56;99.30;93411.22;5070337;28;20149;-77
2022/11/15 09:40:54;;;;;;;39.17;20.38;;;;;;;10.66;98.73;93377.38;5070527;28;20109;-77
2022/11/15 09:43:42;;;;;;;42.15;21.90;;;;;;;11.01;97.15;93407.06;5070613;28;20044;-77
2022/11/15 09:46:18;;;;;;;42.15;22.20;;;;;;;10.99;93.86;93391.84;5070229;28;20056;-76
2022/11/15 09:49:02;;;;;;;39.47;21.63;;;;;;;11.09;95.36;93386.22;5070507;28;20048;-75
2022/11/15 09:51:33;;;;;;;44.40;20.70;;;;;;;11.35;93.86;93392.97;5070323;28;20048;-77
2022/11/15 09:54:10;;;;;;;42.60;20.10;;;;;;;11.52;90.17;93396.81;5071088;28;20040;-77
2022/11/15 09:56:41;;;;;;;48.67;19.80;;;;;;;11.59;90.90;93400.91;5070140;28;20562;-77
2022/11/15 09:59:36;;;;;;;40.67;18.92;;;;;;;11.65;92.71;93377.88;5070491;28;20048;-76
2022/11/15 10:02:19;;;;;;;37.97;18.42;;;;;;;11.77;91.96;93389.06;5075308;28;20040;-76
2022/11/15 10:04:46;;;;;;;41.00;18.58;;;;;;;11.92;90.28;93386.16;5101086;28;20047;-76
2022/11/15 10:07:18;;;;;;;38.05;17.27;;;;;;;11.97;89.83;93383.72;5111330;28;20104;-76
2022/11/15 10:09:48;;;;;;;37.53;17.67;;;;;;;12.06;90.05;93389.41;5111162;28;20043;-76
2022/11/15 10:12:16;;;;;;;38.65;17.40;;;;;;;12.11;89.08;93373.31;5110904;28;20191;-77
2022/11/15 10:14:43;;;;;;;32.13;15.98;;;;;;;12.14;88.24;93381.38;5110774;28;20051;-76
2022/11/15 10:17:29;;;;;;;35.25;16.65;;;;;;;12.32;88.93;93374.69;5110837;28;20104;-77
2022/11/15 10:20:01;;;;;;;;;;;;;;;12.35;87.33;93376.81;5111672;28;20047;-76
2022/11/15 10:22:30;;;;;;;37.45;16.08;;;;;;;12.33;87.31;93357.41;5110856;28;19977;-76
2022/11/15 10:25:18;;;;;;;34.15;16.98;;;;;;;12.68;87.71;93372.25;5110720;28;20047;-77
2022/11/15 10:27:53;;;;;;;34.78;15.88;;;;;;;12.75;87.19;93360.06;5110709;28;20051;-76
2022/11/15 10:30:20;;;;;;;34.08;14.75;;;;;;;12.90;85.98;93364.03;5111111;28;20043;-77
2022/11/15 10:32:50;;;;;;;30.15;14.50;;;;;;;12.93;83.23;93350.69;5110691;28;20052;-76
2022/11/15 10:35:19;;;;;;;24.27;13.38;;;;;;;12.86;82.52;93350.78;5110644;28;20162;-76
2022/11/15 10:37:45;;;;;;;30.25;14.35;;;;;;;12.92;84.23;93334.44;5110568;28;20051;-76
2022/11/15 10:40:18;;;;;;;28.20;14.05;;;;;;;12.98;83.82;93340.53;5110945;28;20074;-76
2022/11/15 10:42:45;;;;;;;26.23;12.95;;;;;;;12.80;81.67;93315.59;5110284;28;20073;-76
2022/11/15 10:45:25;;;;;;;35.35;13.73;;;;;;;13.09;84.80;93313.16;5110162;28;20074;-76
2022/11/15 10:47:53;;;;;;;44.10;16.63;;;;;;;13.46;85.23;93322.50;5110395;28;20076;-76
2022/11/15 10:50:30;;;;;;;28.73;14.95;;;;;;;13.64;80.41;93324.22;5110378;28;20104;-76
2022/11/15 10:52:57;;;;;;;31.52;15.25;;;;;;;13.84;82.58;93320.50;5110500;28;20048;-76
2022/11/15 10:55:30;;;;;;;33.65;15.25;;;;;;;13.75;77.90;93314.91;5081029;28;20097;-76
2022/11/15 10:58:03;;;;;;;32.13;14.15;;;;;;;13.93;80.05;93308.78;5110233;28;20489;-76
2022/11/15 11:00:34;;;;;;;40.08;16.27;;;;;;;14.18;82.11;93305.16;5110123;28;20092;-76
2022/11/15 11:03:04;;;;;;;33.35;15.38;;;;;;;14.24;78.28;93308.63;5110482;28;20134;-76
2022/11/15 11:05:33;;;;;;;30.48;14.48;;;;;;;14.28;77.78;93309.72;5110148;28;20525;-76
2022/11/15 11:08:02;;;;;;;30.25;13.90;;;;;;;14.42;76.96;93297.31;5110132;28;20051;-76
2022/11/15 11:10:29;;;;;;;21.92;11.68;;;;;;;14.45;77.30;93296.88;5110583;28;20083;-76
2022/11/15 11:12:56;;;;;;;26.63;12.98;;;;;;;14.65;80.08;93290.47;5110494;28;20492;-76
2022/11/15 11:15:28;;;;;;;22.85;11.55;;;;;;;14.81;76.65;93289.75;5110136;28;20047;-76
2022/11/15 11:18:03;;;;;;;21.33;11.50;;;;;;;14.93;76.51;93287.09;5110282;28;20050;-76
2022/11/15 11:20:37;;;;;;;20.83;9.85;;;;;;;15.04;76.85;93280.28;5110256;28;20100;-76
2022/11/15 11:23:23;;;;;;;14.73;8.90;;;;;;;15.20;75.22;93283.09;5096829;28;20051;-76
2022/11/15 11:26:00;;;;;;;16.42;8.55;;;;;;;15.32;74.90;93270.84;5110130;28;20071;-76
2022/11/15 11:28:40;;;;;;;15.18;9.32;;;;;;;15.36;74.18;93264.19;5103581;28;20047;-76
2022/11/15 11:31:20;;;;;;;11.27;7.07;;;;;;;15.39;73.20;93252.56;5109822;28;20497;-76
2022/11/15 11:33:58;;;;;;;13.15;6.57;;;;;;;15.41;73.07;93242.75;5110126;28;20047;-76
2022/11/15 11:36:40;;;;;;;10.93;6.30;;;;;;;15.42;72.80;93235.78;5109688;28;20120;-76
2022/11/15 11:39:25;;;;;;;8.98;5.80;;;;;;;15.45;71.28;93228.31;5083289;28;20391;-76
2022/11/15 11:42:04;;;;;;;11.50;5.40;;;;;;;15.40;68.74;93230.03;5068636;28;20052;-76
2022/11/15 11:44:56;;;;;;;10.07;6.20;;;;;;;15.43;70.71;93220.03;5082179;28;20825;-76
2022/11/15 11:47:25;;;;;;;8.95;5.72;;;;;;;15.45;71.35;93219.75;5103604;28;20056;-76
2022/11/15 11:49:54;;;;;;;10.95;5.68;;;;;;;15.50;69.23;93218.03;5088065;28;20124;-76